createdAt,value
2022-12-25T00:01:39.017Z,7.04
2022-12-25T00:04:05.664Z,7.07
2022-12-25T00:06:32.117Z,7.18
2022-12-25T00:08:58.750Z,7.11
2022-12-25T00:11:25.205Z,7.11
2022-12-25T00:13:51.710Z,7.09
2022-12-25T00:16:24.374Z,7.11
2022-12-25T00:18:51.569Z,7.18
2022-12-25T00:21:19.813Z,7.16
2022-12-25T00:23:46.709Z,7.11
2022-12-25T00:26:16.890Z,7.17
2022-12-25T00:28:43.764Z,7.34
2022-12-25T00:31:18.426Z,7.30
2022-12-25T00:33:46.873Z,7.12
2022-12-25T00:36:14.929Z,7.13
2022-12-25T00:38:42.122Z,7.24
2022-12-25T00:41:17.156Z,7.20
2022-12-25T00:43:44.263Z,7.16
2022-12-25T00:46:12.845Z,7.19
2022-12-25T00:48:39.875Z,7.08
2022-12-25T00:51:08.999Z,7.15
2022-12-25T00:53:35.494Z,7.16
2022-12-25T00:56:05.422Z,7.14
2022-12-25T00:58:33.735Z,7.18
2022-12-25T01:01:00.327Z,7.23
2022-12-25T01:03:27.479Z,7.13
2022-12-25T01:05:59.571Z,7.36
2022-12-25T01:08:27.666Z,7.29
2022-12-25T01:10:56.093Z,7.28
2022-12-25T01:13:22.520Z,7.21
2022-12-25T01:15:49.435Z,7.23
2022-12-25T01:18:15.937Z,7.36
2022-12-25T01:20:42.347Z,7.30
2022-12-25T01:23:08.810Z,7.30
2022-12-25T01:25:35.435Z,7.40
2022-12-25T01:28:01.988Z,7.46
2022-12-25T01:30:28.576Z,7.43
2022-12-25T01:32:54.976Z,7.42
2022-12-25T01:35:21.447Z,7.34
2022-12-25T01:37:47.881Z,7.31
2022-12-25T01:40:14.343Z,7.28
2022-12-25T01:42:40.775Z,7.26
2022-12-25T01:45:32.193Z,7.20
2022-12-25T01:47:59.758Z,7.37
2022-12-25T01:50:27.627Z,7.35
2022-12-25T01:52:55.148Z,7.33
2022-12-25T01:55:22.536Z,7.31
2022-12-25T01:57:49.598Z,7.35
2022-12-25T02:00:16.344Z,7.35
2022-12-25T02:02:44.599Z,7.29
2022-12-25T02:05:15.671Z,7.29
2022-12-25T02:07:42.953Z,7.33
2022-12-25T02:10:10.713Z,7.18
2022-12-25T02:12:38.158Z,7.25
2022-12-25T02:15:09.597Z,7.24
2022-12-25T02:17:43.318Z,7.24
2022-12-25T02:20:28.095Z,7.27
2022-12-25T02:23:07.222Z,7.23
2022-12-25T02:25:59.238Z,7.19
2022-12-25T02:28:52.655Z,7.20
2022-12-25T02:31:29.453Z,7.27
2022-12-25T02:34:17.484Z,7.33
2022-12-25T02:36:57.530Z,7.31
2022-12-25T02:39:58.219Z,7.37
2022-12-25T02:43:07.632Z,7.43
2022-12-25T02:46:10.541Z,7.40
2022-12-25T02:49:03.905Z,7.41
2022-12-25T02:51:54.064Z,7.40
2022-12-25T02:54:49.553Z,7.54
2022-12-25T02:57:37.480Z,7.48
2022-12-25T03:00:24.203Z,7.42
2022-12-25T03:03:11.726Z,7.45
2022-12-25T03:05:58.982Z,7.40
2022-12-25T03:08:34.501Z,7.41
2022-12-25T03:11:25.764Z,7.47
2022-12-25T03:13:55.683Z,7.45
2022-12-25T03:16:41.343Z,7.51
2022-12-25T03:19:26.927Z,7.62
2022-12-25T03:22:13.724Z,7.61
2022-12-25T03:25:00.163Z,7.58
2022-12-25T03:27:29.187Z,7.70
2022-12-25T03:30:14.304Z,7.73
2022-12-25T03:32:58.786Z,7.73
2022-12-25T03:35:33.692Z,7.78
2022-12-25T03:38:47.158Z,7.71
2022-12-25T03:41:45.568Z,7.71
2022-12-25T03:44:46.442Z,7.72
2022-12-25T03:47:49.307Z,7.75
2022-12-25T03:50:40.622Z,7.63
2022-12-25T03:53:40.165Z,7.69
2022-12-25T03:56:26.512Z,7.66
2022-12-25T03:59:21.046Z,7.66
2022-12-25T04:02:09.509Z,7.70
2022-12-25T04:04:54.593Z,7.61
2022-12-25T04:07:39.395Z,7.57
2022-12-25T04:10:25.147Z,7.55
2022-12-25T04:13:10.053Z,7.50
2022-12-25T04:15:54.950Z,7.49
2022-12-25T04:18:40.116Z,7.54
2022-12-25T04:21:25.397Z,7.59
2022-12-25T04:24:10.363Z,7.54
2022-12-25T04:26:55.169Z,7.57
2022-12-25T04:29:40.076Z,7.60
2022-12-25T04:32:25.215Z,7.76
2022-12-25T04:35:10.515Z,7.73
2022-12-25T04:37:36.957Z,7.61
2022-12-25T04:40:03.961Z,7.60
2022-12-25T04:42:30.355Z,7.62
2022-12-25T04:44:56.789Z,7.69
2022-12-25T04:47:23.219Z,7.70
2022-12-25T04:49:50.374Z,7.70
2022-12-25T04:52:16.789Z,7.70
2022-12-25T04:54:43.236Z,7.62
2022-12-25T04:57:09.700Z,7.55
2022-12-25T04:59:36.100Z,7.54
2022-12-25T05:02:02.673Z,7.53
2022-12-25T05:04:29.227Z,7.52
2022-12-25T05:06:55.638Z,7.50
2022-12-25T05:09:22.045Z,7.59
2022-12-25T05:11:48.463Z,7.63
2022-12-25T05:14:15.348Z,7.58
2022-12-25T05:16:42.027Z,7.62
2022-12-25T05:19:08.567Z,7.59
2022-12-25T05:21:34.998Z,7.65
2022-12-25T05:24:01.565Z,7.69
2022-12-25T05:26:28.101Z,7.66
2022-12-25T05:28:54.996Z,7.59
2022-12-25T05:31:21.868Z,7.58
2022-12-25T05:33:52.516Z,7.51
2022-12-25T05:36:19.738Z,7.53
2022-12-25T05:38:46.336Z,7.50
2022-12-25T05:41:12.847Z,7.53
2022-12-25T05:43:39.279Z,7.60
2022-12-25T05:46:10.680Z,7.68
2022-12-25T05:48:37.919Z,7.66
2022-12-25T05:51:06.433Z,7.62
2022-12-25T05:53:34.341Z,7.59
2022-12-25T05:56:03.379Z,7.70
2022-12-25T05:58:31.152Z,7.67
2022-12-25T06:00:57.796Z,7.66
2022-12-25T06:03:25.026Z,7.67
2022-12-25T06:05:52.464Z,7.67
2022-12-25T06:08:18.897Z,7.61
2022-12-25T06:10:45.350Z,7.70
2022-12-25T06:13:11.760Z,7.64
2022-12-25T06:15:40.197Z,7.68
2022-12-25T06:18:06.928Z,7.68
2022-12-25T06:20:33.756Z,7.68
2022-12-25T06:23:00.813Z,7.61
2022-12-25T06:25:27.460Z,7.60
2022-12-25T06:27:53.883Z,7.61
2022-12-25T06:30:20.297Z,7.60
2022-12-25T06:32:46.687Z,7.62
2022-12-25T06:35:13.142Z,7.58
2022-12-25T06:37:39.547Z,7.69
2022-12-25T06:40:06.687Z,7.66
2022-12-25T06:42:33.181Z,7.66
2022-12-25T06:44:59.770Z,7.62
2022-12-25T06:47:26.186Z,7.67
2022-12-25T06:49:52.632Z,7.66
2022-12-25T06:52:19.052Z,7.61
2022-12-25T06:54:46.786Z,7.64
2022-12-25T06:57:13.253Z,7.64
2022-12-25T06:59:39.666Z,7.69
2022-12-25T07:02:06.272Z,7.66
2022-12-25T07:04:39.877Z,7.63
2022-12-25T07:07:09.329Z,7.62
2022-12-25T07:09:39.205Z,7.58
2022-12-25T07:12:16.924Z,7.60
2022-12-25T07:14:45.176Z,7.64
2022-12-25T07:17:11.987Z,7.59
2022-12-25T07:19:44.671Z,7.59
2022-12-25T07:22:11.228Z,7.54
2022-12-25T07:24:37.588Z,7.59
2022-12-25T07:27:04.137Z,7.61
2022-12-25T07:29:30.564Z,7.60
2022-12-25T07:31:57.136Z,7.58
2022-12-25T07:34:23.994Z,7.56
2022-12-25T07:36:50.578Z,7.55
2022-12-25T07:39:17.019Z,7.54
2022-12-25T07:41:44.282Z,7.56
2022-12-25T07:44:10.703Z,7.58
2022-12-25T07:46:37.115Z,7.59
2022-12-25T07:49:03.548Z,7.61
2022-12-25T07:51:30.230Z,7.66
2022-12-25T07:53:58.754Z,7.72
2022-12-25T07:56:25.605Z,7.68
2022-12-25T07:58:51.990Z,7.67
2022-12-25T08:01:22.048Z,7.73
2022-12-25T08:03:57.526Z,7.68
2022-12-25T08:06:29.582Z,7.67
2022-12-25T08:08:57.390Z,7.71
2022-12-25T08:11:23.919Z,7.73
2022-12-25T08:13:50.422Z,7.77
2022-12-25T08:16:16.844Z,7.72
2022-12-25T08:18:43.699Z,7.66
2022-12-25T08:21:13.823Z,7.69
2022-12-25T08:23:42.878Z,7.70
2022-12-25T08:26:13.005Z,7.74
2022-12-25T08:28:39.788Z,7.72
2022-12-25T08:31:27.557Z,7.76
2022-12-25T08:33:56.982Z,7.71
2022-12-25T08:36:24.234Z,7.72
2022-12-25T08:38:50.738Z,7.70
2022-12-25T08:41:17.920Z,7.73
2022-12-25T08:43:44.504Z,7.77
2022-12-25T08:46:11.112Z,7.83
2022-12-25T08:48:37.984Z,7.71
2022-12-25T08:51:08.195Z,7.69
2022-12-25T08:53:34.601Z,7.69
2022-12-25T08:56:06.161Z,7.68
2022-12-25T08:58:33.317Z,7.68
2022-12-25T09:01:00.077Z,7.69
2022-12-25T09:03:27.065Z,7.74
2022-12-25T09:05:54.428Z,7.74
2022-12-25T09:08:21.946Z,7.71
2022-12-25T09:10:49.379Z,7.70
2022-12-25T09:13:15.876Z,7.70
2022-12-25T09:15:42.366Z,7.69
2022-12-25T09:18:08.837Z,7.69
2022-12-25T09:20:35.246Z,7.62
2022-12-25T09:23:01.687Z,7.61
2022-12-25T09:25:29.160Z,7.67
2022-12-25T09:27:56.766Z,7.70
2022-12-25T09:30:23.329Z,7.70
2022-12-25T09:32:49.780Z,7.68
2022-12-25T09:35:18.457Z,7.68
2022-12-25T09:37:45.069Z,7.73
2022-12-25T09:40:19.930Z,7.75
2022-12-25T09:42:48.507Z,7.76
2022-12-25T09:45:19.879Z,7.73
2022-12-25T09:47:49.421Z,7.81
2022-12-25T09:50:24.912Z,7.86
2022-12-25T09:53:06.161Z,7.90
2022-12-25T09:55:36.391Z,7.89
2022-12-25T09:58:12.216Z,7.83
2022-12-25T10:00:43.110Z,7.87
2022-12-25T10:03:43.741Z,7.87
2022-12-25T10:06:38.637Z,7.88
2022-12-25T10:09:43.767Z,7.78
2022-12-25T10:12:28.750Z,7.83
2022-12-25T10:15:09.939Z,7.88
2022-12-25T10:17:54.490Z,7.83
2022-12-25T10:20:45.396Z,7.82
2022-12-25T10:23:17.645Z,7.79
2022-12-25T10:25:45.131Z,7.84
2022-12-25T10:28:23.602Z,7.81
2022-12-25T10:30:53.266Z,7.82
2022-12-25T10:33:21.336Z,7.85
2022-12-25T10:35:48.155Z,7.86
2022-12-25T10:38:17.104Z,7.88
2022-12-25T10:41:12.770Z,7.83
2022-12-25T10:43:45.584Z,7.82
2022-12-25T10:46:14.563Z,7.80
2022-12-25T10:48:53.236Z,7.80
2022-12-25T10:51:46.117Z,7.89
2022-12-25T10:54:28.514Z,7.85
2022-12-25T10:57:19.615Z,7.82
2022-12-25T10:59:48.239Z,7.91
2022-12-25T11:02:54.846Z,7.88
2022-12-25T11:05:28.289Z,7.90
2022-12-25T11:07:56.638Z,7.93
2022-12-25T11:10:25.286Z,7.95
2022-12-25T11:12:53.047Z,7.95
2022-12-25T11:15:39.528Z,7.93
2022-12-25T11:18:43.793Z,7.89
2022-12-25T11:21:26.868Z,7.84
2022-12-25T11:23:59.828Z,7.83
2022-12-25T11:26:28.143Z,7.86
2022-12-25T11:28:58.165Z,7.86
2022-12-25T11:31:42.844Z,7.91
2022-12-25T11:34:30.660Z,7.94
2022-12-25T11:36:59.373Z,7.94
2022-12-25T11:39:30.223Z,7.94
2022-12-25T11:42:08.814Z,7.98
2022-12-25T11:45:02.593Z,7.97
2022-12-25T11:47:46.676Z,7.91
2022-12-25T11:50:27.964Z,7.94
2022-12-25T11:52:55.453Z,7.94
2022-12-25T11:55:31.691Z,7.95
2022-12-25T11:58:05.832Z,7.93
2022-12-25T12:00:35.243Z,7.88
2022-12-25T12:03:11.602Z,7.96
2022-12-25T12:05:53.624Z,8.01
2022-12-25T12:08:20.097Z,7.99
2022-12-25T12:11:15.619Z,8.05
2022-12-25T12:14:22.115Z,8.03
2022-12-25T12:16:48.715Z,7.99
2022-12-25T12:19:31.185Z,7.98
2022-12-25T12:22:01.348Z,8.02
2022-12-25T12:24:39.018Z,8.04
2022-12-25T12:27:11.608Z,8.02
2022-12-25T12:29:44.606Z,8.02
2022-12-25T12:32:29.157Z,8.01
2022-12-25T12:34:56.849Z,8.02
2022-12-25T12:37:32.894Z,8.02
2022-12-25T12:40:00.088Z,7.99
2022-12-25T12:42:32.909Z,7.98
2022-12-25T12:45:18.186Z,7.96
2022-12-25T12:47:50.723Z,7.92
2022-12-25T12:50:40.824Z,7.91
2022-12-25T12:53:16.292Z,7.91
2022-12-25T12:55:42.792Z,7.90
2022-12-25T12:58:23.850Z,7.85
2022-12-25T13:01:22.569Z,7.88
2022-12-25T13:04:04.198Z,7.86
2022-12-25T13:06:43.731Z,7.82
2022-12-25T13:09:31.199Z,7.88
2022-12-25T13:11:57.721Z,7.84
2022-12-25T13:14:25.178Z,7.83
2022-12-25T13:16:54.225Z,7.86
2022-12-25T13:19:23.986Z,7.82
2022-12-25T13:22:01.919Z,7.83
2022-12-25T13:24:30.976Z,7.83
2022-12-25T13:26:58.335Z,7.77
2022-12-25T13:29:38.132Z,7.76
2022-12-25T13:32:08.482Z,7.77
2022-12-25T13:34:41.061Z,7.78
2022-12-25T13:37:10.311Z,7.81
2022-12-25T13:39:39.424Z,7.78
2022-12-25T13:42:09.501Z,7.73
2022-12-25T13:44:47.447Z,7.77
2022-12-25T13:47:20.001Z,7.81
2022-12-25T13:49:47.281Z,7.70
2022-12-25T13:52:17.819Z,7.78
2022-12-25T13:55:02.629Z,7.78
2022-12-25T13:57:36.103Z,7.77
2022-12-25T14:00:05.183Z,7.79
2022-12-25T14:02:36.533Z,7.80
2022-12-25T14:05:21.695Z,7.79
2022-12-25T14:07:56.146Z,7.80
2022-12-25T14:10:25.925Z,7.79
2022-12-25T14:12:55.093Z,7.82
2022-12-25T14:15:23.247Z,7.84
2022-12-25T14:17:51.429Z,7.82
2022-12-25T14:20:28.553Z,7.82
2022-12-25T14:22:57.717Z,7.83
2022-12-25T14:25:30.154Z,7.83
2022-12-25T14:27:57.017Z,7.88
2022-12-25T14:30:27.394Z,7.84
2022-12-25T14:32:55.892Z,7.81
2022-12-25T14:35:23.805Z,7.83
2022-12-25T14:37:56.444Z,7.84
2022-12-25T14:40:27.733Z,7.82
2022-12-25T14:43:02.920Z,7.83
2022-12-25T14:45:32.232Z,7.83
2022-12-25T14:48:18.528Z,7.74
2022-12-25T14:51:08.672Z,7.80
2022-12-25T14:53:37.755Z,7.81
2022-12-25T14:56:06.630Z,7.83
2022-12-25T14:58:41.276Z,7.79
2022-12-25T15:01:08.055Z,7.80
2022-12-25T15:03:37.741Z,7.79
2022-12-25T15:06:19.069Z,7.81
2022-12-25T15:08:59.654Z,7.84
2022-12-25T15:11:26.682Z,7.83
2022-12-25T15:13:53.106Z,7.82
2022-12-25T15:16:34.191Z,7.82
2022-12-25T15:19:01.935Z,7.79
2022-12-25T15:21:34.406Z,7.78
2022-12-25T15:24:00.901Z,7.77
2022-12-25T15:26:29.384Z,7.78
2022-12-25T15:28:56.172Z,7.76
2022-12-25T15:31:32.835Z,7.73
2022-12-25T15:34:01.948Z,7.73
2022-12-25T15:36:29.052Z,7.70
2022-12-25T15:38:56.282Z,7.70
2022-12-25T15:41:45.360Z,7.66
2022-12-25T15:44:12.577Z,7.63
2022-12-25T15:46:39.199Z,7.66
2022-12-25T15:49:05.735Z,7.64
2022-12-25T15:51:32.917Z,7.62
2022-12-25T15:53:59.652Z,7.64
2022-12-25T15:56:26.677Z,7.63
2022-12-25T15:58:53.170Z,7.66
2022-12-25T16:01:22.689Z,7.64
2022-12-25T16:03:49.388Z,7.66
2022-12-25T16:06:17.305Z,7.66
2022-12-25T16:08:44.489Z,7.63
2022-12-25T16:11:11.469Z,7.60
2022-12-25T16:13:38.083Z,7.59
2022-12-25T16:16:05.113Z,7.59
2022-12-25T16:18:32.927Z,7.56
2022-12-25T16:20:59.811Z,7.58
2022-12-25T16:23:26.304Z,7.47
2022-12-25T16:25:52.723Z,7.52
2022-12-25T16:28:19.197Z,7.51
2022-12-25T16:30:45.716Z,7.53
2022-12-25T16:33:12.315Z,7.49
2022-12-25T16:35:38.830Z,7.51
2022-12-25T16:38:05.312Z,7.51
2022-12-25T16:40:32.320Z,7.48
2022-12-25T16:42:59.013Z,7.48
2022-12-25T16:45:25.495Z,7.46
2022-12-25T16:47:51.885Z,7.48
2022-12-25T16:50:18.631Z,7.47
2022-12-25T16:52:45.092Z,7.47
2022-12-25T16:55:11.654Z,7.47
2022-12-25T16:57:38.133Z,7.46
2022-12-25T17:00:05.217Z,7.47
2022-12-25T17:02:31.807Z,7.48
2022-12-25T17:04:58.436Z,7.45
2022-12-25T17:07:24.871Z,7.49
2022-12-25T17:09:51.341Z,7.50
2022-12-25T17:12:17.779Z,7.54
2022-12-25T17:14:44.381Z,7.52
2022-12-25T17:17:11.050Z,7.50
2022-12-25T17:19:37.545Z,7.48
2022-12-25T17:22:03.969Z,7.45
2022-12-25T17:24:30.634Z,7.47
2022-12-25T17:26:57.105Z,7.47
2022-12-25T17:29:25.064Z,7.47
2022-12-25T17:31:51.743Z,7.46
2022-12-25T17:34:18.893Z,7.49
2022-12-25T17:36:45.336Z,7.49
2022-12-25T17:39:11.781Z,7.48
2022-12-25T17:41:38.617Z,7.50
2022-12-25T17:44:05.249Z,7.49
2022-12-25T17:46:31.788Z,7.50
2022-12-25T17:49:00.189Z,7.48
2022-12-25T17:51:28.663Z,7.49
2022-12-25T17:53:58.165Z,7.49
2022-12-25T17:56:24.941Z,7.48
2022-12-25T17:58:53.802Z,7.51
2022-12-25T18:01:20.864Z,7.49
2022-12-25T18:03:47.531Z,7.47
2022-12-25T18:06:20.612Z,7.48
2022-12-25T18:08:47.891Z,7.48
2022-12-25T18:11:17.735Z,7.45
2022-12-25T18:13:48.261Z,7.37
2022-12-25T18:16:15.269Z,7.44
2022-12-25T18:18:46.521Z,7.46
2022-12-25T18:21:18.014Z,7.46
2022-12-25T18:23:46.252Z,7.42
2022-12-25T18:26:13.296Z,7.45
2022-12-25T18:28:42.337Z,7.46
2022-12-25T18:31:11.030Z,7.48
2022-12-25T18:33:37.673Z,7.53
2022-12-25T18:36:04.741Z,7.50
2022-12-25T18:38:31.184Z,7.50
2022-12-25T18:40:58.063Z,7.52
2022-12-25T18:43:53.737Z,7.53
2022-12-25T18:46:11.472Z,7.50
2022-12-25T18:48:39.191Z,7.51
2022-12-25T18:51:12.126Z,7.57
2022-12-25T18:53:38.642Z,7.58
2022-12-25T18:56:11.105Z,7.57
2022-12-25T18:58:38.259Z,7.47
2022-12-25T19:01:14.310Z,7.52
2022-12-25T19:03:41.495Z,7.53
2022-12-25T19:06:08.190Z,7.55
2022-12-25T19:08:34.775Z,7.53
2022-12-25T19:11:06.324Z,7.53
2022-12-25T19:13:32.729Z,7.50
2022-12-25T19:15:59.653Z,7.52
2022-12-25T19:18:26.206Z,7.52
2022-12-25T19:20:52.639Z,7.54
2022-12-25T19:23:19.105Z,7.53
2022-12-25T19:25:45.569Z,7.54
2022-12-25T19:28:11.989Z,7.53
2022-12-25T19:30:38.593Z,7.53
2022-12-25T19:33:06.833Z,7.54
2022-12-25T19:35:34.510Z,7.53
2022-12-25T19:38:00.910Z,7.53
2022-12-25T19:40:27.380Z,7.47
2022-12-25T19:42:53.774Z,7.46
2022-12-25T19:45:21.533Z,7.50
2022-12-25T19:47:48.137Z,7.52
2022-12-25T19:50:14.693Z,7.48
2022-12-25T19:52:41.113Z,7.48
2022-12-25T19:55:07.898Z,7.45
2022-12-25T19:57:34.378Z,7.45
2022-12-25T20:00:00.853Z,7.46
2022-12-25T20:02:27.361Z,7.46
2022-12-25T20:04:53.893Z,7.48
2022-12-25T20:07:20.296Z,7.49
2022-12-25T20:09:46.687Z,7.48
2022-12-25T20:12:15.029Z,7.46
2022-12-25T20:14:41.493Z,7.46
2022-12-25T20:17:13.662Z,7.36
2022-12-25T20:19:42.054Z,7.41
2022-12-25T20:22:08.431Z,7.47
2022-12-25T20:24:34.860Z,7.48
2022-12-25T20:27:01.428Z,7.45
2022-12-25T20:29:27.899Z,7.50
2022-12-25T20:31:54.438Z,7.49
2022-12-25T20:34:20.965Z,7.49
2022-12-25T20:36:49.212Z,7.46
2022-12-25T20:39:15.639Z,7.47
2022-12-25T20:41:42.115Z,7.47
2022-12-25T20:44:10.043Z,7.49
2022-12-25T20:46:37.329Z,7.49
2022-12-25T20:49:04.247Z,7.46
2022-12-25T20:51:30.937Z,7.48
2022-12-25T20:53:57.491Z,7.46
2022-12-25T20:56:25.727Z,7.47
2022-12-25T20:58:57.659Z,7.49
2022-12-25T21:01:24.725Z,7.47
2022-12-25T21:03:51.581Z,7.46
2022-12-25T21:06:18.224Z,7.47
2022-12-25T21:08:44.747Z,7.47
2022-12-25T21:11:11.945Z,7.48
2022-12-25T21:13:40.897Z,7.48
2022-12-25T21:16:10.646Z,7.46
2022-12-25T21:18:37.052Z,7.45
2022-12-25T21:21:07.248Z,7.46
2022-12-25T21:23:35.549Z,7.47
2022-12-25T21:26:12.531Z,7.46
2022-12-25T21:28:38.972Z,7.45
2022-12-25T21:31:08.802Z,7.44
2022-12-25T21:33:53.958Z,7.45
2022-12-25T21:36:29.416Z,7.45
2022-12-25T21:39:01.566Z,7.46
2022-12-25T21:41:30.428Z,7.47
2022-12-25T21:43:57.175Z,7.49
2022-12-25T21:46:24.434Z,7.49
2022-12-25T21:48:51.586Z,7.50
2022-12-25T21:51:39.433Z,7.50
2022-12-25T21:54:06.787Z,7.47
2022-12-25T21:56:41.455Z,7.47
2022-12-25T21:59:12.032Z,7.48
2022-12-25T22:01:38.654Z,7.49
2022-12-25T22:04:07.205Z,7.47
2022-12-25T22:06:52.511Z,7.47
2022-12-25T22:09:19.474Z,7.45
2022-12-25T22:12:04.307Z,7.46
2022-12-25T22:14:52.959Z,7.49
2022-12-25T22:17:43.458Z,7.52
2022-12-25T22:20:17.104Z,7.52
2022-12-25T22:22:44.149Z,7.50
2022-12-25T22:25:11.834Z,7.53
2022-12-25T22:27:39.510Z,7.52
2022-12-25T22:30:08.739Z,7.52
2022-12-25T22:32:35.174Z,7.50
2022-12-25T22:35:01.739Z,7.51
2022-12-25T22:37:28.243Z,7.53
2022-12-25T22:39:54.626Z,7.52
2022-12-25T22:42:21.503Z,7.49
2022-12-25T22:44:47.959Z,7.50
2022-12-25T22:47:14.402Z,7.52
2022-12-25T22:49:40.845Z,7.53
2022-12-25T22:52:09.731Z,7.51
2022-12-25T22:54:36.702Z,7.49
2022-12-25T22:57:03.171Z,7.44
2022-12-25T22:59:29.614Z,7.47
2022-12-25T23:01:56.295Z,7.50
2022-12-25T23:04:23.865Z,7.52
2022-12-25T23:06:51.076Z,7.52
2022-12-25T23:09:24.493Z,7.52
2022-12-25T23:11:51.423Z,7.48
2022-12-25T23:14:36.606Z,7.46
2022-12-25T23:17:03.200Z,7.45
2022-12-25T23:19:48.345Z,7.43
2022-12-25T23:22:33.720Z,7.45
2022-12-25T23:25:18.416Z,7.42
2022-12-25T23:27:45.242Z,7.45
2022-12-25T23:30:15.301Z,7.47
2022-12-25T23:32:42.677Z,7.43
2022-12-25T23:35:10.139Z,7.44
2022-12-25T23:37:36.555Z,7.46
2022-12-25T23:40:03.199Z,7.43
2022-12-25T23:42:29.585Z,7.47
2022-12-25T23:44:56.044Z,7.48
2022-12-25T23:47:22.579Z,7.47
2022-12-25T23:49:48.948Z,7.44
2022-12-25T23:52:15.434Z,7.50
2022-12-25T23:54:41.871Z,7.46
2022-12-25T23:57:08.495Z,7.48
2022-12-25T23:59:34.970Z,7.48
